createdAt,value
2016-03-27T09:35:56.993Z,76.36
2016-03-27T09:36:09.680Z,76.55
2016-03-27T09:36:22.977Z,77.22
2016-03-27T09:36:36.261Z,77.12
2016-03-27T09:36:49.557Z,76.74
2016-03-27T09:37:02.839Z,75.89
2016-03-27T09:37:16.136Z,73.99
2016-03-27T09:37:29.246Z,73.14
2016-03-27T09:37:42.527Z,73.43
2016-03-27T09:37:55.824Z,73.9
2016-03-27T09:38:09.699Z,72.77
2016-03-27T09:38:23.248Z,71.62
2016-03-27T09:38:36.514Z,70.2
2016-03-27T09:38:49.795Z,68.5
2016-03-27T09:39:03.076Z,67.83
2016-03-27T09:39:16.357Z,66.22
2016-03-27T09:39:29.641Z,65.94
2016-03-27T09:39:42.922Z,66.32
2016-03-27T09:39:56.219Z,66.8
2016-03-27T09:40:09.500Z,67.18
2016-03-27T09:40:22.781Z,67.74
2016-03-27T09:40:36.080Z,67.55
2016-03-27T09:40:49.346Z,67.65
2016-03-27T09:41:02.643Z,67.08
2016-03-27T09:41:15.939Z,67.46
2016-03-27T09:41:29.224Z,66.89
2016-03-27T09:41:42.521Z,66.22
2016-03-27T09:41:55.817Z,66.99
2016-03-27T09:42:09.099Z,66.51
2016-03-27T09:42:22.380Z,65.37
2016-03-27T09:42:35.662Z,64.9
2016-03-27T09:42:48.959Z,65.37
2016-03-27T09:43:02.240Z,65
2016-03-27T09:43:15.522Z,65.19
2016-03-27T09:43:28.820Z,64.9
2016-03-27T09:43:42.102Z,64.52
2016-03-27T09:43:55.383Z,64.04
2016-03-27T09:44:08.695Z,64.23
2016-03-27T09:44:21.977Z,63.95
2016-03-27T09:44:35.245Z,63.95
2016-03-27T09:44:48.558Z,62.82
2016-03-27T09:45:01.839Z,62.62
2016-03-27T09:45:15.120Z,62.91
2016-03-27T09:45:28.419Z,62.82
2016-03-27T09:45:41.716Z,63.01
2016-03-27T09:45:54.997Z,63.57
2016-03-27T09:46:08.294Z,63.95
2016-03-27T09:46:21.575Z,64.9
2016-03-27T09:46:34.860Z,64.9
2016-03-27T09:46:48.125Z,65.09
2016-03-27T09:47:01.422Z,64.71
2016-03-27T09:47:14.703Z,64.23
2016-03-27T09:47:27.971Z,64.14
2016-03-27T09:47:41.252Z,63.73
2016-03-27T09:47:54.534Z,63.95
2016-03-27T09:48:08.002Z,64.9
2016-03-27T09:48:21.440Z,65.56
2016-03-27T09:48:34.723Z,66.99
2016-03-27T09:48:48.004Z,66.89
2016-03-27T09:49:01.301Z,66.51
2016-03-27T09:49:14.582Z,66.13
2016-03-27T09:49:27.851Z,65.28
2016-03-27T09:49:41.132Z,64.9
2016-03-27T09:49:54.414Z,64.04
2016-03-27T09:50:07.726Z,62.91
2016-03-27T09:50:21.007Z,62.05
2016-03-27T09:50:34.292Z,61.58
2016-03-27T09:50:47.588Z,60.83
2016-03-27T09:51:00.854Z,60.35
2016-03-27T09:51:14.167Z,59.56
2016-03-27T09:51:27.451Z,59
2016-03-27T09:51:40.716Z,58.81
2016-03-27T09:51:53.857Z,59
2016-03-27T09:52:07.138Z,59
2016-03-27T09:52:20.420Z,58.81
2016-03-27T09:52:33.718Z,58.71
2016-03-27T09:52:47.015Z,58.9
2016-03-27T09:53:00.281Z,58.3
2016-03-27T09:53:13.578Z,58.11
2016-03-27T09:53:26.878Z,58.3
2016-03-27T09:53:40.159Z,57.83
2016-03-27T09:53:53.471Z,58.3
2016-03-27T09:54:06.768Z,58.21
2016-03-27T09:54:20.050Z,58.78
2016-03-27T09:54:33.333Z,59.06
2016-03-27T09:54:46.630Z,59.53
2016-03-27T09:54:59.911Z,60.29
2016-03-27T09:55:13.208Z,60.77
2016-03-27T09:55:26.493Z,60.77
2016-03-27T09:55:39.774Z,61.3
2016-03-27T09:55:53.056Z,61.49
2016-03-27T09:56:06.368Z,61.77
2016-03-27T09:56:19.649Z,62.06
2016-03-27T09:56:32.933Z,62.63
2016-03-27T09:56:46.214Z,63.48
2016-03-27T09:56:59.479Z,64.14
2016-03-27T09:57:12.745Z,63.95
2016-03-27T09:57:26.013Z,64.71
2016-03-27T09:57:39.310Z,64.61
2016-03-27T09:57:52.575Z,64.9
2016-03-27T09:58:05.825Z,65.37
2016-03-27T09:58:19.122Z,65.56
2016-03-27T09:58:32.407Z,66.31
2016-03-27T09:58:45.689Z,66.69
2016-03-27T09:58:58.985Z,67.17
2016-03-27T09:59:12.267Z,67.36
2016-03-27T09:59:25.550Z,67.64
2016-03-27T09:59:38.362Z,68.3
2016-03-27T09:59:51.487Z,68.02
2016-03-27T10:00:04.769Z,69.15
2016-03-27T10:00:18.066Z,70.2
2016-03-27T10:00:31.349Z,70.29
2016-03-27T10:00:44.630Z,70.1
2016-03-27T10:00:57.911Z,70.86
2016-03-27T10:01:11.208Z,70.86
2016-03-27T10:01:24.478Z,71.42
2016-03-27T10:01:37.759Z,71.61
2016-03-27T10:01:51.072Z,71.61
2016-03-27T10:02:04.353Z,71.61
2016-03-27T10:02:17.618Z,71.99
2016-03-27T10:02:30.917Z,72.18
2016-03-27T10:02:44.214Z,72.47
2016-03-27T10:02:57.480Z,72.28
2016-03-27T10:03:10.730Z,71.61
2016-03-27T10:03:24.248Z,71.42
2016-03-27T10:03:37.514Z,71.42
2016-03-27T10:03:51.014Z,71.61
2016-03-27T10:04:04.311Z,71.14
2016-03-27T10:04:17.577Z,71.04
2016-03-27T10:04:30.861Z,71.42
2016-03-27T10:04:44.126Z,71.33
2016-03-27T10:04:57.423Z,72.94
2016-03-27T10:05:10.689Z,72.28
2016-03-27T10:05:23.972Z,72.28
2016-03-27T10:05:37.253Z,72.28
2016-03-27T10:05:50.550Z,72.37
2016-03-27T10:06:03.816Z,71.9
2016-03-27T10:06:17.160Z,71.61
2016-03-27T10:06:30.475Z,71.04
2016-03-27T10:06:43.756Z,71.23
2016-03-27T10:06:57.053Z,71.33
2016-03-27T10:07:10.319Z,71.61
2016-03-27T10:07:23.588Z,72.18
2016-03-27T10:07:36.884Z,71.99
2016-03-27T10:07:50.166Z,71.8
2016-03-27T10:08:03.447Z,71.71
2016-03-27T10:08:16.728Z,71.61
2016-03-27T10:08:30.011Z,71.23
2016-03-27T10:08:43.277Z,71.3
2016-03-27T10:08:56.558Z,71.71
2016-03-27T10:09:09.855Z,71.52
2016-03-27T10:09:23.136Z,71.9
2016-03-27T10:09:36.405Z,71.52
2016-03-27T10:09:49.718Z,71.39
2016-03-27T10:10:02.983Z,70.63
2016-03-27T10:10:16.264Z,71.04
2016-03-27T10:10:29.549Z,71.67
2016-03-27T10:10:42.830Z,71.48
2016-03-27T10:10:56.111Z,70.63
2016-03-27T10:11:09.408Z,71.58
2016-03-27T10:11:22.689Z,71.58
2016-03-27T10:11:35.957Z,71.2
2016-03-27T10:11:49.238Z,70.63
2016-03-27T10:12:02.363Z,70.63
2016-03-27T10:12:15.644Z,70.44
2016-03-27T10:12:28.772Z,70.44
2016-03-27T10:12:42.069Z,70.82
2016-03-27T10:12:55.366Z,71.39
2016-03-27T10:13:08.663Z,71.01
2016-03-27T10:13:21.960Z,70.92
2016-03-27T10:13:35.244Z,71.16
2016-03-27T10:13:48.525Z,71.35
2016-03-27T10:14:01.807Z,71.64
2016-03-27T10:14:15.088Z,71.92
2016-03-27T10:14:28.371Z,72.11
2016-03-27T10:14:41.668Z,71.83
2016-03-27T10:14:54.965Z,71.77
2016-03-27T10:15:08.262Z,71.86
2016-03-27T10:15:21.543Z,71.77
2016-03-27T10:15:34.827Z,71.67
2016-03-27T10:15:48.109Z,72.24
2016-03-27T10:16:01.390Z,72.24
2016-03-27T10:16:14.718Z,73.18
2016-03-27T10:16:27.987Z,73.09
2016-03-27T10:16:41.268Z,72.9
2016-03-27T10:16:54.549Z,73.09
2016-03-27T10:17:07.830Z,72.99
2016-03-27T10:17:20.955Z,72.71
2016-03-27T10:17:34.098Z,72.9
2016-03-27T10:17:47.379Z,72.99
2016-03-27T10:18:00.645Z,72.43
2016-03-27T10:18:14.129Z,71.86
2016-03-27T10:18:27.476Z,71.48
2016-03-27T10:18:40.742Z,71.3
2016-03-27T10:18:54.023Z,71.11
2016-03-27T10:19:21.492Z,70.54
2016-03-27T10:19:34.776Z,70.82
2016-03-27T10:19:48.041Z,70.63
2016-03-27T10:20:01.338Z,70.92
2016-03-27T10:20:14.620Z,70.63
2016-03-27T10:20:27.903Z,70.25
2016-03-27T10:20:41.231Z,70.63
2016-03-27T10:20:54.512Z,70.35
2016-03-27T10:21:07.793Z,70.16
2016-03-27T10:21:21.090Z,70.25
2016-03-27T10:21:34.360Z,69.78
2016-03-27T10:21:47.626Z,70.06
2016-03-27T10:22:00.922Z,70.25
2016-03-27T10:22:14.204Z,70.44
2016-03-27T10:22:27.503Z,70.25
2016-03-27T10:22:40.784Z,70.21
2016-03-27T10:22:54.081Z,70.21
2016-03-27T10:23:07.346Z,70.12
2016-03-27T10:23:20.628Z,70.21
2016-03-27T10:23:33.926Z,70.31
2016-03-27T10:23:47.192Z,71.35
2016-03-27T10:24:00.489Z,70.97
2016-03-27T10:24:13.770Z,71.54
2016-03-27T10:24:27.055Z,71.64
2016-03-27T10:24:40.337Z,71.64
2016-03-27T10:24:53.618Z,71.83
2016-03-27T10:25:06.899Z,71.73
2016-03-27T10:25:20.243Z,71.92
2016-03-27T10:25:33.557Z,71.54
2016-03-27T10:25:46.839Z,71.64
2016-03-27T10:26:00.089Z,72.2
2016-03-27T10:26:13.354Z,72.3
2016-03-27T10:26:26.622Z,72.77
2016-03-27T10:26:39.903Z,73.43
2016-03-27T10:26:53.153Z,73.9
2016-03-27T10:27:06.434Z,74.38
2016-03-27T10:27:19.716Z,74.57
2016-03-27T10:27:33.017Z,73.9
2016-03-27T10:27:46.345Z,73.9
2016-03-27T10:27:59.626Z,73.9
2016-03-27T10:28:12.907Z,73.81
2016-03-27T10:28:26.206Z,73.9
2016-03-27T10:28:39.487Z,74.38
2016-03-27T10:28:52.612Z,74.28
2016-03-27T10:29:05.925Z,74.47
2016-03-27T10:29:19.190Z,73.9
2016-03-27T10:29:32.475Z,73.62
2016-03-27T10:29:45.756Z,73.62
2016-03-27T10:29:59.053Z,73.33
2016-03-27T10:30:12.350Z,72.86
2016-03-27T10:30:25.649Z,72.86
2016-03-27T10:30:38.930Z,72.96
2016-03-27T10:30:52.227Z,73.05
2016-03-27T10:31:05.352Z,72.39
2016-03-27T10:31:18.649Z,72.3
2016-03-27T10:31:31.933Z,71.73
2016-03-27T10:31:45.198Z,71.64
2016-03-27T10:31:58.495Z,71.35
2016-03-27T10:32:11.777Z,71.35
2016-03-27T10:32:25.060Z,70.97
2016-03-27T10:32:38.372Z,71.45
2016-03-27T10:32:51.654Z,71.54
2016-03-27T10:33:04.935Z,71.54
2016-03-27T10:33:18.763Z,71.26
2016-03-27T10:33:32.095Z,71.45
2016-03-27T10:33:45.376Z,70.97
2016-03-27T10:33:58.658Z,70.97
2016-03-27T10:34:11.954Z,70.88
2016-03-27T10:34:25.238Z,70.78
2016-03-27T10:34:38.503Z,70.12
2016-03-27T10:34:51.800Z,69.37
2016-03-27T10:35:05.081Z,69.74
2016-03-27T10:35:18.363Z,69.37
2016-03-27T10:35:31.490Z,69.27
2016-03-27T10:35:44.771Z,69.65
2016-03-27T10:35:58.052Z,69.74
2016-03-27T10:36:11.333Z,69.74
2016-03-27T10:36:24.619Z,69.74
2016-03-27T10:36:37.900Z,69.46
2016-03-27T10:36:51.181Z,68.99
2016-03-27T10:37:04.478Z,69.09
2016-03-27T10:37:17.744Z,68.71
2016-03-27T10:37:31.027Z,68.42
2016-03-27T10:37:44.168Z,68.04
2016-03-27T10:37:57.449Z,67.95
2016-03-27T10:38:10.730Z,67.47
2016-03-27T10:38:24.027Z,67.66
2016-03-27T10:38:37.452Z,67.29
2016-03-27T10:38:50.733Z,66.91
2016-03-27T10:39:04.030Z,66.72
2016-03-27T10:39:17.155Z,67.57
2016-03-27T10:39:30.439Z,67.76
2016-03-27T10:39:43.720Z,68.14
2016-03-27T10:39:57.033Z,68.33
2016-03-27T10:40:10.314Z,69.27
2016-03-27T10:40:23.595Z,69.37
2016-03-27T10:40:36.894Z,69.46
2016-03-27T10:40:50.207Z,70.12
2016-03-27T10:41:03.519Z,70.78
2016-03-27T10:41:16.816Z,71.64
2016-03-27T10:41:30.085Z,71.54
2016-03-27T10:41:43.366Z,72.11
2016-03-27T10:41:56.647Z,73.05
2016-03-27T10:42:09.960Z,73.24
2016-03-27T10:42:23.241Z,74.38
2016-03-27T10:42:36.557Z,75.32
2016-03-27T10:42:49.838Z,75.04
2016-03-27T10:43:03.103Z,74.85
2016-03-27T10:43:16.385Z,74.57
2016-03-27T10:43:29.496Z,74.28
2016-03-27T10:43:42.777Z,73.56
2016-03-27T10:43:56.105Z,72.11
2016-03-27T10:44:08.699Z,71.45
2016-03-27T10:44:21.965Z,71.54
2016-03-27T10:44:35.249Z,71.48
2016-03-27T10:44:48.530Z,70.5
2016-03-27T10:45:01.812Z,70.4
2016-03-27T10:45:15.093Z,70.03
2016-03-27T10:45:28.377Z,69.65
2016-03-27T10:45:41.690Z,69.37
2016-03-27T10:45:54.971Z,68.71
2016-03-27T10:46:08.236Z,68.65
2016-03-27T10:46:21.518Z,68.08
2016-03-27T10:46:34.786Z,67.95
2016-03-27T10:46:48.099Z,67.57
2016-03-27T10:47:01.411Z,67.66
2016-03-27T10:47:14.739Z,67
2016-03-27T10:47:28.024Z,66.44
2016-03-27T10:47:41.305Z,66.82
2016-03-27T10:47:54.571Z,66.09
2016-03-27T10:48:07.836Z,65.97
2016-03-27T10:48:21.211Z,66.16
2016-03-27T10:48:34.494Z,66.16
2016-03-27T10:48:47.760Z,66.19
2016-03-27T10:49:01.026Z,66.35
2016-03-27T10:49:14.307Z,66.06
2016-03-27T10:49:27.606Z,65.72
2016-03-27T10:49:40.934Z,66.09
2016-03-27T10:49:54.200Z,65.97
2016-03-27T10:50:07.481Z,66.25
2016-03-27T10:50:20.793Z,66.25
2016-03-27T10:50:34.093Z,66.16
2016-03-27T10:50:47.406Z,66.16
2016-03-27T10:51:00.687Z,66.94
2016-03-27T10:51:13.999Z,67.1
2016-03-27T10:51:27.284Z,66.85
2016-03-27T10:51:40.565Z,67.13
2016-03-27T10:51:53.846Z,66.85
2016-03-27T10:52:07.127Z,67
2016-03-27T10:52:20.409Z,67.57
2016-03-27T10:52:33.708Z,68.08
2016-03-27T10:52:46.973Z,68.36
2016-03-27T10:53:00.239Z,67.95
2016-03-27T10:53:13.536Z,67.76
2016-03-27T10:53:26.836Z,67.76
2016-03-27T10:53:40.148Z,68.71
2016-03-27T10:53:53.445Z,68.52
2016-03-27T10:54:06.742Z,69.18
2016-03-27T10:54:20.007Z,69.46
2016-03-27T10:54:33.292Z,69.65
2016-03-27T10:54:46.557Z,69.74
2016-03-27T10:54:59.839Z,69.46
2016-03-27T10:55:13.120Z,69.46
2016-03-27T10:55:26.435Z,69.49
2016-03-27T10:55:39.685Z,69.74
2016-03-27T10:55:52.935Z,69.97
2016-03-27T10:56:06.060Z,70.54
2016-03-27T10:56:19.326Z,70.69
2016-03-27T10:56:32.640Z,70.03
2016-03-27T10:56:45.937Z,70.31
2016-03-27T10:56:59.234Z,70.4
2016-03-27T10:57:12.344Z,70.69
2016-03-27T10:57:25.612Z,70.97
2016-03-27T10:57:38.893Z,70.78
2016-03-27T10:57:52.175Z,70.54
2016-03-27T10:58:05.722Z,70.44
2016-03-27T10:58:19.018Z,70.25
2016-03-27T10:58:32.334Z,69.78
2016-03-27T10:58:45.615Z,70.25
2016-03-27T10:58:59.100Z,70.44
2016-03-27T10:59:12.381Z,70.63
2016-03-27T10:59:25.664Z,70.16
2016-03-27T10:59:38.977Z,70.06
2016-03-27T10:59:52.289Z,70.12
2016-03-27T11:00:05.570Z,69.68
2016-03-27T11:00:18.852Z,69.02
2016-03-27T11:00:32.151Z,68.55
2016-03-27T11:00:45.433Z,68.17
2016-03-27T11:00:58.745Z,68.04
2016-03-27T11:01:12.058Z,67.7
2016-03-27T11:01:25.342Z,67.7
2016-03-27T11:01:38.623Z,67.41
2016-03-27T11:01:51.904Z,67.51
2016-03-27T11:02:05.201Z,67.47
2016-03-27T11:02:18.483Z,67.51
2016-03-27T11:02:31.813Z,67.85
2016-03-27T11:02:45.125Z,67.79
2016-03-27T11:02:58.406Z,68.14
2016-03-27T11:03:11.735Z,69.65
2016-03-27T11:03:24.989Z,70.78
2016-03-27T11:03:38.270Z,71.54
2016-03-27T11:03:51.551Z,72.67
2016-03-27T11:04:04.832Z,73.81
2016-03-27T11:04:18.129Z,73.71
2016-03-27T11:04:31.428Z,74.28
2016-03-27T11:04:44.756Z,75.51
2016-03-27T11:04:58.069Z,77.4
2016-03-27T11:05:11.350Z,77.45
2016-03-27T11:05:24.633Z,77.45
2016-03-27T11:05:37.899Z,77.26
2016-03-27T11:05:51.196Z,77.45
2016-03-27T11:06:04.493Z,78.31
2016-03-27T11:06:17.805Z,78.4
2016-03-27T11:06:31.137Z,78.31
2016-03-27T11:06:44.418Z,78.02
2016-03-27T11:06:57.684Z,76.98
2016-03-27T11:07:10.809Z,77.26
2016-03-27T11:07:24.122Z,76.32
2016-03-27T11:07:37.405Z,76.23
2016-03-27T11:07:50.717Z,75.57
2016-03-27T11:08:04.045Z,75.57
2016-03-27T11:08:17.327Z,75.38
2016-03-27T11:08:30.610Z,75.28
2016-03-27T11:08:43.891Z,75.85
2016-03-27T11:08:57.188Z,75.66
2016-03-27T11:09:10.469Z,75.38
2016-03-27T11:09:23.797Z,75.85
2016-03-27T11:09:37.129Z,75.95
2016-03-27T11:09:50.488Z,75.66
2016-03-27T11:10:03.769Z,75.38
2016-03-27T11:10:17.066Z,75.85
2016-03-27T11:10:30.350Z,75.95
2016-03-27T11:10:43.647Z,76.23
2016-03-27T11:10:56.944Z,76.23
2016-03-27T11:11:10.272Z,76.23
2016-03-27T11:11:23.632Z,76.32
2016-03-27T11:11:36.916Z,75.57
2016-03-27T11:11:50.197Z,75.23
2016-03-27T11:12:03.478Z,75.28
2016-03-27T11:12:16.760Z,74.57
2016-03-27T11:12:30.058Z,74.47
2016-03-27T11:12:43.371Z,73.9
2016-03-27T11:12:56.699Z,73.43
2016-03-27T11:13:09.996Z,73.14
2016-03-27T11:13:23.293Z,73.52
2016-03-27T11:13:36.577Z,73.52
2016-03-27T11:14:04.030Z,72.96
2016-03-27T11:14:17.327Z,72.96
2016-03-27T11:14:30.658Z,73.14
2016-03-27T11:14:43.986Z,72.86
2016-03-27T11:14:57.283Z,72.36
2016-03-27T11:15:10.549Z,71.79
2016-03-27T11:15:23.861Z,71.69
2016-03-27T11:15:36.988Z,71.22
2016-03-27T11:15:50.270Z,71.69
2016-03-27T11:16:03.582Z,71.5
2016-03-27T11:16:16.895Z,71.64
2016-03-27T11:16:30.179Z,71.69
2016-03-27T11:16:43.304Z,71.79
2016-03-27T11:16:56.585Z,71.26
2016-03-27T11:17:09.882Z,71.92
2016-03-27T11:17:23.179Z,71.83
2016-03-27T11:17:36.494Z,72.02
2016-03-27T11:17:49.776Z,71.45
2016-03-27T11:18:03.072Z,72.02
2016-03-27T11:18:16.260Z,72.2
2016-03-27T11:18:29.559Z,72.17
2016-03-27T11:18:42.871Z,72.36
2016-03-27T11:18:56.168Z,73.02
2016-03-27T11:19:09.449Z,72.64
2016-03-27T11:19:22.731Z,73.39
2016-03-27T11:19:36.063Z,73.68
2016-03-27T11:19:49.375Z,73.96
2016-03-27T11:20:02.672Z,74.34
2016-03-27T11:20:15.969Z,74.15
2016-03-27T11:20:29.252Z,74.53
2016-03-27T11:20:42.549Z,74.34
2016-03-27T11:20:55.830Z,74.95
2016-03-27T11:21:09.143Z,75.13
2016-03-27T11:21:22.471Z,75.04
2016-03-27T11:21:35.770Z,75.13
2016-03-27T11:21:49.051Z,74.66
2016-03-27T11:22:02.332Z,73.81
2016-03-27T11:22:15.614Z,73.05
2016-03-27T11:22:28.915Z,72.96
2016-03-27T11:22:42.211Z,72.86
2016-03-27T11:22:55.540Z,72.07
2016-03-27T11:23:08.852Z,71.73
2016-03-27T11:23:22.133Z,71.69
2016-03-27T11:23:35.432Z,70.37
2016-03-27T11:23:48.713Z,70.18
2016-03-27T11:24:01.979Z,69.74
2016-03-27T11:24:15.276Z,69.33
2016-03-27T11:24:28.606Z,68.57
2016-03-27T11:24:41.778Z,67.82
2016-03-27T11:24:54.919Z,68.01
2016-03-27T11:25:08.200Z,68.01
2016-03-27T11:25:21.481Z,68.1
2016-03-27T11:25:34.781Z,68.1
2016-03-27T11:25:48.078Z,67.91
2016-03-27T11:26:01.390Z,68.2
2016-03-27T11:26:14.531Z,68.39
2016-03-27T11:26:27.831Z,68.76
2016-03-27T11:26:41.096Z,68.48
2016-03-27T11:26:54.378Z,69.43
2016-03-27T11:27:07.643Z,69.9
2016-03-27T11:27:20.925Z,70.37
2016-03-27T11:27:34.209Z,70.56
2016-03-27T11:27:47.537Z,70.75
2016-03-27T11:28:00.834Z,70.78
2016-03-27T11:28:14.115Z,71.64
2016-03-27T11:28:27.398Z,71.35
2016-03-27T11:28:40.680Z,71.88
2016-03-27T11:28:53.976Z,71.73
2016-03-27T11:29:07.289Z,72.17
2016-03-27T11:29:20.617Z,71.69
2016-03-27T11:29:33.933Z,71.6
2016-03-27T11:29:47.214Z,71.79
2016-03-27T11:30:00.479Z,71.79
2016-03-27T11:30:13.776Z,71.6
2016-03-27T11:30:27.061Z,71.5
2016-03-27T11:30:40.357Z,72.07
2016-03-27T11:30:53.670Z,72.55
2016-03-27T11:31:06.998Z,72.83
2016-03-27T11:31:20.311Z,73.33
2016-03-27T11:31:33.594Z,73.05
2016-03-27T11:31:46.906Z,72.86
2016-03-27T11:32:00.188Z,72.96
2016-03-27T11:32:13.469Z,73.14
2016-03-27T11:32:26.784Z,73.05
2016-03-27T11:32:40.081Z,73.05
2016-03-27T11:32:53.409Z,73.33
2016-03-27T11:33:06.722Z,73.81
2016-03-27T11:33:20.066Z,74.38
2016-03-27T11:33:33.365Z,73.9
2016-03-27T11:33:46.647Z,74.38
2016-03-27T11:33:59.944Z,74.57
2016-03-27T11:34:13.240Z,74.57
2016-03-27T11:34:26.540Z,74.38
2016-03-27T11:34:39.853Z,74.28
2016-03-27T11:34:53.165Z,74.38
2016-03-27T11:35:06.447Z,74.57
2016-03-27T11:35:19.743Z,74.76
2016-03-27T11:35:33.028Z,74.85
2016-03-27T11:35:46.309Z,74.57
2016-03-27T11:35:59.606Z,75.32
2016-03-27T11:36:12.934Z,75.32
2016-03-27T11:36:26.280Z,75.7
2016-03-27T11:36:39.577Z,75.89
2016-03-27T11:36:52.842Z,75.98
2016-03-27T11:37:06.123Z,76.07
2016-03-27T11:37:19.420Z,75.95
2016-03-27T11:37:32.719Z,75.76
2016-03-27T11:37:46.032Z,76.32
2016-03-27T11:37:59.360Z,76.23
2016-03-27T11:38:12.657Z,76.51
2016-03-27T11:38:25.941Z,76.61
2016-03-27T11:38:39.222Z,76.7
2016-03-27T11:38:52.519Z,76.98
2016-03-27T11:39:05.800Z,77.08
2016-03-27T11:39:19.097Z,77.17
2016-03-27T11:39:32.413Z,77.45
2016-03-27T11:39:45.725Z,77.74
2016-03-27T11:39:59.006Z,78.59
2016-03-27T11:40:12.288Z,79.06
2016-03-27T11:40:25.572Z,78.87
2016-03-27T11:40:38.869Z,78.21
2016-03-27T11:40:52.166Z,78.31
2016-03-27T11:41:05.494Z,78.78
2016-03-27T11:41:18.822Z,79.25
2016-03-27T11:41:32.121Z,79.53
2016-03-27T11:41:45.402Z,79.44
2016-03-27T11:41:58.683Z,79.82
2016-03-27T11:42:11.965Z,80.19
2016-03-27T11:42:25.280Z,79.53
2016-03-27T11:42:38.577Z,79.53
2016-03-27T11:42:51.905Z,79.44
2016-03-27T11:43:05.233Z,80.1
2016-03-27T11:43:18.733Z,80.29
2016-03-27T11:43:32.033Z,79.82
2016-03-27T11:43:45.314Z,80.38
2016-03-27T11:43:58.611Z,81.04
2016-03-27T11:44:11.908Z,81.71
2016-03-27T11:44:25.205Z,83.12
2016-03-27T11:44:38.535Z,84.26
2016-03-27T11:44:51.848Z,84.73
2016-03-27T11:45:05.113Z,85.39
2016-03-27T11:45:18.410Z,86.48
2016-03-27T11:45:31.679Z,87.24
2016-03-27T11:45:44.991Z,87.43
2016-03-27T11:45:58.288Z,87.71
2016-03-27T11:46:11.616Z,88.18
2016-03-27T11:46:24.929Z,88.56
2016-03-27T11:46:38.213Z,89.22
2016-03-27T11:46:51.510Z,89.78
2016-03-27T11:47:04.807Z,89.97
2016-03-27T11:47:18.088Z,90.07
2016-03-27T11:47:31.402Z,90.54
2016-03-27T11:47:44.715Z,91.11
2016-03-27T11:47:58.027Z,90.82
2016-03-27T11:48:11.340Z,91.11
2016-03-27T11:48:24.918Z,91.49
2016-03-27T11:48:38.218Z,91.86
2016-03-27T11:48:51.484Z,92.05
2016-03-27T11:49:04.780Z,91.77
2016-03-27T11:49:18.077Z,90.54
2016-03-27T11:49:31.362Z,89.4
2016-03-27T11:49:58.862Z,88.37
2016-03-27T11:50:12.174Z,87.9
2016-03-27T11:50:25.299Z,87.71
2016-03-27T11:50:38.599Z,87.43
2016-03-27T11:50:51.865Z,87.24
2016-03-27T11:51:05.161Z,87.14
2016-03-27T11:51:18.474Z,86.76
2016-03-27T11:51:31.804Z,87.14
2016-03-27T11:51:45.163Z,87.14
2016-03-27T11:51:58.445Z,87.05
2016-03-27T11:52:11.742Z,87.05
2016-03-27T11:52:25.023Z,87.33
2016-03-27T11:52:38.307Z,87.52
2016-03-27T11:52:51.604Z,87.52
2016-03-27T11:53:04.932Z,88.28
2016-03-27T11:53:18.260Z,87.8
2016-03-27T11:53:31.544Z,88.46
2016-03-27T11:53:44.826Z,88.65
2016-03-27T11:53:58.123Z,88.37
2016-03-27T11:54:11.404Z,88.65
2016-03-27T11:54:24.701Z,88.65
2016-03-27T11:54:38.000Z,89.59
2016-03-27T11:54:51.343Z,90.07
2016-03-27T11:55:04.640Z,90.64
2016-03-27T11:55:17.937Z,91.01
2016-03-27T11:55:31.221Z,91.49
2016-03-27T11:55:44.487Z,91.49
2016-03-27T11:55:57.784Z,92.1
2016-03-27T11:56:11.081Z,91.82
2016-03-27T11:56:24.378Z,91.44
2016-03-27T11:56:37.662Z,92
2016-03-27T11:56:50.927Z,91.72
2016-03-27T11:57:04.224Z,91.91
2016-03-27T11:57:17.506Z,91.91
2016-03-27T11:57:30.821Z,92
2016-03-27T11:57:44.134Z,92
2016-03-27T11:57:57.446Z,92.94
2016-03-27T11:58:10.743Z,92.57
2016-03-27T11:58:24.024Z,92.85
2016-03-27T11:58:37.307Z,92.29
2016-03-27T11:58:50.589Z,92
2016-03-27T11:59:03.886Z,92.57
2016-03-27T11:59:17.198Z,91.91
2016-03-27T11:59:30.545Z,91.82
2016-03-27T11:59:43.826Z,92.29
2016-03-27T11:59:57.123Z,93.04
2016-03-27T12:00:10.248Z,92
2016-03-27T12:00:23.529Z,92
2016-03-27T12:00:36.829Z,92.47
2016-03-27T12:00:50.142Z,92.29
2016-03-27T12:01:03.470Z,92.38
2016-03-27T12:01:16.767Z,92.66
2016-03-27T12:01:30.347Z,92.19
2016-03-27T12:01:43.659Z,92
2016-03-27T12:01:56.815Z,91.72
2016-03-27T12:02:10.097Z,91.82
2016-03-27T12:02:23.394Z,92.19
2016-03-27T12:02:36.677Z,92
2016-03-27T12:02:49.974Z,92
2016-03-27T12:03:03.286Z,92.29
2016-03-27T12:03:16.599Z,91.91
2016-03-27T12:03:29.915Z,91.91
2016-03-27T12:03:43.243Z,91.91
2016-03-27T12:03:56.540Z,92.66
2016-03-27T12:04:09.837Z,92.1
2016-03-27T12:04:23.165Z,92.94
2016-03-27T12:04:36.448Z,92.94
2016-03-27T12:04:49.730Z,92.76
2016-03-27T12:05:03.011Z,93.32
2016-03-27T12:05:16.308Z,92.85
2016-03-27T12:05:29.655Z,92.38
2016-03-27T12:05:42.983Z,92.1
2016-03-27T12:05:56.295Z,92.57
2016-03-27T12:06:09.623Z,92.47
2016-03-27T12:06:22.920Z,92.85
2016-03-27T12:06:36.204Z,92.66
2016-03-27T12:06:49.486Z,93.51
2016-03-27T12:07:02.767Z,92.66
2016-03-27T12:07:16.079Z,93.7
2016-03-27T12:07:29.378Z,93.61
2016-03-27T12:07:42.535Z,94.56
2016-03-27T12:07:55.706Z,94.93
2016-03-27T12:08:08.988Z,94.74
2016-03-27T12:08:22.285Z,94.65
2016-03-27T12:08:35.569Z,94.65
2016-03-27T12:08:48.850Z,94.56
2016-03-27T12:09:02.147Z,94.65
2016-03-27T12:09:15.459Z,94.84
2016-03-27T12:09:28.775Z,95.03
2016-03-27T12:09:42.087Z,94.89
2016-03-27T12:09:55.369Z,95.36
2016-03-27T12:10:08.650Z,95.54
2016-03-27T12:10:21.947Z,96.01
2016-03-27T12:10:35.231Z,96.49
2016-03-27T12:10:48.512Z,96.86
2016-03-27T12:11:01.809Z,97.34
2016-03-27T12:11:15.122Z,97.15
2016-03-27T12:11:28.405Z,97.81
2016-03-27T12:11:41.514Z,98.19
2016-03-27T12:11:54.811Z,98.38
2016-03-27T12:12:08.092Z,98.94
2016-03-27T12:12:21.389Z,98.66
2016-03-27T12:12:34.720Z,98.94
2016-03-27T12:12:47.892Z,99.7
2016-03-27T12:13:01.189Z,99.99
2016-03-27T12:13:14.486Z,99.99
2016-03-27T12:13:27.769Z,99.99
2016-03-27T12:13:41.051Z,99.99
2016-03-27T12:13:54.347Z,99.99
2016-03-27T12:14:07.660Z,99.99
2016-03-27T12:14:20.957Z,99.99
2016-03-27T12:14:34.241Z,99.99
2016-03-27T12:14:47.538Z,99.99
2016-03-27T12:15:00.804Z,99.99
2016-03-27T12:15:14.116Z,99.99
2016-03-27T12:15:27.431Z,99.99
2016-03-27T12:15:40.743Z,99.99
2016-03-27T12:15:54.056Z,99.99
2016-03-27T12:16:07.337Z,99.99
2016-03-27T12:16:20.602Z,99.99
2016-03-27T12:16:33.888Z,99.99
2016-03-27T12:16:47.060Z,99.99
2016-03-27T12:17:00.356Z,99.99
2016-03-27T12:17:13.700Z,99.99
2016-03-27T12:17:26.983Z,99.99
2016-03-27T12:17:40.296Z,99.99
2016-03-27T12:17:53.562Z,99.99
2016-03-27T12:18:06.843Z,99.99
2016-03-27T12:18:20.155Z,99.99
2016-03-27T12:18:33.330Z,99.99
2016-03-27T12:18:46.846Z,99.99
2016-03-27T12:19:00.330Z,99.99
2016-03-27T12:19:13.596Z,99.99
2016-03-27T12:19:26.895Z,99.99
2016-03-27T12:19:40.207Z,99.99
2016-03-27T12:19:53.707Z,99.99
2016-03-27T12:20:07.004Z,99.99
2016-03-27T12:20:20.317Z,99.99
2016-03-27T12:20:33.602Z,99.99
2016-03-27T12:20:46.883Z,99.99
2016-03-27T12:21:00.164Z,99.99
2016-03-27T12:21:13.461Z,99.99
2016-03-27T12:21:26.744Z,99.99
2016-03-27T12:21:40.041Z,99.99
2016-03-27T12:21:53.323Z,99.99
2016-03-27T12:22:06.604Z,99.99
2016-03-27T12:22:19.901Z,99.99
2016-03-27T12:22:33.184Z,99.99
2016-03-27T12:22:46.481Z,99.99
2016-03-27T12:22:59.778Z,99.99
2016-03-27T12:23:13.059Z,99.99
2016-03-27T12:23:26.360Z,99.99
2016-03-27T12:23:39.657Z,99.99
2016-03-27T12:23:52.954Z,99.99
2016-03-27T12:24:06.235Z,99.99
2016-03-27T12:24:19.532Z,99.99
2016-03-27T12:24:32.831Z,99.99
2016-03-27T12:24:46.112Z,99.99
2016-03-27T12:24:59.409Z,99.99
2016-03-27T12:25:12.674Z,99.99
2016-03-27T12:25:25.940Z,99.99
2016-03-27T12:25:39.223Z,99.99
2016-03-27T12:25:52.489Z,99.99
2016-03-27T12:26:05.754Z,99.99
2016-03-27T12:26:19.051Z,99.99
2016-03-27T12:26:32.336Z,99.99
2016-03-27T12:26:45.617Z,99.99
2016-03-27T12:26:58.929Z,99.99
2016-03-27T12:27:12.211Z,99.99
2016-03-27T12:27:25.507Z,99.99
2016-03-27T12:27:38.823Z,99.99
2016-03-27T12:27:52.104Z,99.99
2016-03-27T12:28:05.385Z,99.99
2016-03-27T12:28:18.682Z,99.99
2016-03-27T12:28:31.967Z,99.99